createdAt,value
2019-03-22T00:00:36.337Z,0.00
2019-03-22T00:01:36.321Z,0.00
2019-03-22T00:02:36.303Z,0.00
2019-03-22T00:03:36.285Z,0.00
2019-03-22T00:04:36.270Z,0.00
2019-03-22T00:05:36.242Z,0.00
2019-03-22T00:06:36.226Z,0.00
2019-03-22T00:07:36.205Z,0.00
2019-03-22T00:08:36.201Z,0.00
2019-03-22T00:09:36.166Z,0.00
2019-03-22T00:10:36.151Z,0.00
2019-03-22T00:11:36.130Z,0.00
2019-03-22T00:12:36.124Z,0.00
2019-03-22T00:13:36.091Z,0.00
2019-03-22T00:14:37.144Z,0.00
2019-03-22T00:15:36.051Z,0.00
2019-03-22T00:16:36.037Z,0.00
2019-03-22T00:17:36.020Z,0.00
2019-03-22T00:18:35.999Z,0.00
2019-03-22T00:19:35.977Z,0.00
2019-03-22T00:20:35.960Z,0.00
2019-03-22T00:21:35.938Z,0.00
2019-03-22T00:22:35.920Z,0.00
2019-03-22T00:23:35.900Z,0.00
2019-03-22T00:24:35.880Z,0.00
2019-03-22T00:25:35.853Z,0.00
2019-03-22T00:26:35.844Z,0.00
2019-03-22T00:27:35.827Z,0.00
2019-03-22T00:28:35.805Z,0.00
2019-03-22T00:29:35.785Z,0.00
2019-03-22T00:30:35.767Z,0.00
2019-03-22T00:31:35.749Z,0.00
2019-03-22T00:32:35.735Z,0.00
2019-03-22T00:33:35.709Z,0.00
2019-03-22T00:34:35.689Z,0.00
2019-03-22T00:35:35.672Z,0.00
2019-03-22T00:36:35.669Z,0.00
2019-03-22T00:37:35.632Z,0.00
2019-03-22T00:38:35.618Z,0.00
2019-03-22T00:39:35.595Z,0.00
2019-03-22T00:40:35.594Z,0.00
2019-03-22T00:41:35.557Z,0.00
2019-03-22T00:42:35.545Z,0.00
2019-03-22T00:43:35.518Z,0.00
2019-03-22T00:44:35.501Z,0.00
2019-03-22T00:45:35.479Z,0.00
2019-03-22T00:46:35.474Z,0.00
2019-03-22T00:47:35.450Z,0.00
2019-03-22T00:48:35.421Z,0.00
2019-03-22T00:49:35.401Z,0.00
2019-03-22T00:50:35.380Z,0.00
2019-03-22T00:51:35.362Z,0.00
2019-03-22T00:52:35.351Z,0.00
2019-03-22T00:53:35.338Z,0.00
2019-03-22T00:54:35.303Z,0.00
2019-03-22T00:55:35.284Z,0.00
2019-03-22T00:56:35.267Z,0.00
2019-03-22T00:57:35.245Z,0.00
2019-03-22T00:58:35.232Z,0.00
2019-03-22T00:59:35.208Z,0.00
2019-03-22T01:00:35.189Z,0.00
2019-03-22T01:01:35.169Z,0.00
2019-03-22T01:02:35.148Z,0.00
2019-03-22T01:03:35.131Z,0.00
2019-03-22T01:04:35.112Z,0.00
2019-03-22T01:05:35.093Z,0.00
2019-03-22T01:06:35.073Z,0.00
2019-03-22T01:07:35.056Z,0.00
2019-03-22T01:08:35.038Z,0.00
2019-03-22T01:09:35.017Z,0.00
2019-03-22T01:10:34.998Z,0.00
2019-03-22T01:11:34.983Z,0.00
2019-03-22T01:12:34.956Z,0.00
2019-03-22T01:13:34.939Z,0.00
2019-03-22T01:14:34.918Z,0.00
2019-03-22T01:15:34.900Z,0.00
2019-03-22T01:16:34.881Z,0.00
2019-03-22T01:17:34.860Z,0.00
2019-03-22T01:18:34.844Z,0.00
2019-03-22T01:19:34.822Z,0.00
2019-03-22T01:20:34.803Z,0.00
2019-03-22T01:21:34.812Z,0.00
2019-03-22T01:22:34.766Z,0.00
2019-03-22T01:23:34.746Z,0.00
2019-03-22T01:24:34.727Z,0.00
2019-03-22T01:25:34.705Z,0.00
2019-03-22T01:26:34.684Z,0.00
2019-03-22T01:27:40.284Z,0.00
2019-03-22T01:28:34.649Z,0.00
2019-03-22T01:29:34.631Z,0.00
2019-03-22T01:30:34.627Z,0.00
2019-03-22T01:31:34.611Z,0.00
2019-03-22T01:32:34.571Z,0.00
2019-03-22T01:33:34.553Z,0.00
2019-03-22T01:34:34.532Z,0.00
2019-03-22T01:35:34.512Z,0.00
2019-03-22T01:36:34.503Z,0.00
2019-03-22T01:37:34.474Z,0.00
2019-03-22T01:38:34.455Z,0.00
2019-03-22T01:39:34.434Z,0.00
2019-03-22T01:40:34.421Z,0.00
2019-03-22T01:41:34.389Z,0.00
2019-03-22T01:42:34.379Z,0.00
2019-03-22T01:43:34.361Z,0.00
2019-03-22T01:44:34.340Z,0.00
2019-03-22T01:45:34.321Z,0.00
2019-03-22T01:46:34.300Z,0.00
2019-03-22T01:47:34.303Z,0.00
2019-03-22T01:48:34.260Z,0.00
2019-03-22T01:49:34.245Z,0.00
2019-03-22T01:50:34.228Z,0.00
2019-03-22T01:51:34.207Z,0.00
2019-03-22T01:52:34.188Z,0.00
2019-03-22T01:53:34.163Z,0.00
2019-03-22T01:54:34.146Z,0.00
2019-03-22T01:55:34.130Z,0.00
2019-03-22T01:56:34.110Z,0.00
2019-03-22T01:57:34.086Z,0.00
2019-03-22T01:58:34.075Z,0.00
2019-03-22T01:59:34.048Z,0.00
2019-03-22T02:00:34.031Z,0.00
2019-03-22T02:01:34.010Z,0.00
2019-03-22T02:02:33.991Z,0.00
2019-03-22T02:03:33.974Z,0.00
2019-03-22T02:04:33.952Z,0.00
2019-03-22T02:05:33.931Z,0.00
2019-03-22T02:06:33.914Z,0.00
2019-03-22T02:07:33.925Z,0.00
2019-03-22T02:08:33.867Z,0.00
2019-03-22T02:09:33.857Z,0.00
2019-03-22T02:10:33.868Z,0.00
2019-03-22T02:11:33.827Z,0.00
2019-03-22T02:12:33.797Z,0.00
2019-03-22T02:13:33.785Z,0.00
2019-03-22T02:14:33.760Z,0.00
2019-03-22T02:15:33.738Z,0.00
2019-03-22T02:16:33.720Z,0.00
2019-03-22T02:17:33.696Z,0.00
2019-03-22T02:18:33.682Z,0.00
2019-03-22T02:19:33.660Z,0.00
2019-03-22T02:20:33.640Z,0.00
2019-03-22T02:21:33.623Z,0.00
2019-03-22T02:22:33.602Z,0.00
2019-03-22T02:23:33.583Z,0.00
2019-03-22T02:24:33.566Z,0.00
2019-03-22T02:25:33.542Z,0.00
2019-03-22T02:26:33.525Z,0.00
2019-03-22T02:27:33.503Z,0.00
2019-03-22T02:28:33.486Z,0.00
2019-03-22T02:29:33.467Z,0.00
2019-03-22T02:30:33.497Z,0.00
2019-03-22T02:31:33.428Z,0.00
2019-03-22T02:32:33.410Z,0.00
2019-03-22T02:33:33.398Z,0.00
2019-03-22T02:34:33.402Z,0.00
2019-03-22T02:35:33.351Z,0.00
2019-03-22T02:36:33.330Z,0.00
2019-03-22T02:37:33.310Z,0.00
2019-03-22T02:38:33.289Z,0.00
2019-03-22T02:39:33.416Z,0.00
2019-03-22T02:40:33.257Z,0.00
2019-03-22T02:41:33.234Z,0.00
2019-03-22T02:42:33.218Z,0.00
2019-03-22T02:43:33.212Z,0.00
2019-03-22T02:44:33.176Z,0.00
2019-03-22T02:45:33.158Z,0.00
2019-03-22T02:46:33.135Z,0.00
2019-03-22T02:47:33.114Z,0.00
2019-03-22T02:48:33.095Z,0.00
2019-03-22T02:49:33.077Z,0.00
2019-03-22T02:50:33.054Z,0.00
2019-03-22T02:51:33.046Z,0.00
2019-03-22T02:52:33.017Z,0.00
2019-03-22T02:53:32.992Z,0.00
2019-03-22T02:54:32.987Z,0.00
2019-03-22T02:55:32.957Z,0.00
2019-03-22T02:56:32.938Z,0.00
2019-03-22T02:57:32.923Z,0.00
2019-03-22T02:58:32.902Z,0.00
2019-03-22T02:59:32.882Z,0.00
2019-03-22T03:00:32.863Z,0.00
2019-03-22T03:01:32.838Z,0.00
2019-03-22T03:02:32.820Z,0.00
2019-03-22T03:03:32.801Z,0.00
2019-03-22T03:04:32.793Z,0.00
2019-03-22T03:05:32.758Z,0.00
2019-03-22T03:06:32.741Z,0.00
2019-03-22T03:07:32.719Z,0.00
2019-03-22T03:08:32.703Z,0.00
2019-03-22T03:09:32.672Z,0.00
2019-03-22T03:10:32.660Z,0.00
2019-03-22T03:11:32.643Z,0.00
2019-03-22T03:12:32.618Z,0.00
2019-03-22T03:13:32.604Z,0.00
2019-03-22T03:14:32.582Z,0.00
2019-03-22T03:15:32.571Z,0.00
2019-03-22T03:16:32.543Z,0.00
2019-03-22T03:17:32.522Z,0.00
2019-03-22T03:18:32.502Z,0.00
2019-03-22T03:19:32.486Z,0.00
2019-03-22T03:20:32.480Z,0.00
2019-03-22T03:21:32.444Z,0.00
2019-03-22T03:22:32.423Z,0.00
2019-03-22T03:23:32.402Z,0.00
2019-03-22T03:24:32.384Z,0.00
2019-03-22T03:25:32.373Z,0.00
2019-03-22T03:26:32.342Z,0.00
2019-03-22T03:27:32.323Z,0.00
2019-03-22T03:28:37.346Z,0.00
2019-03-22T03:29:32.281Z,0.00
2019-03-22T03:30:32.275Z,0.00
2019-03-22T03:31:32.268Z,0.00
2019-03-22T03:32:32.235Z,0.00
2019-03-22T03:33:32.209Z,0.00
2019-03-22T03:34:32.185Z,0.00
2019-03-22T03:35:32.167Z,0.00
2019-03-22T03:36:34.941Z,0.00
2019-03-22T03:37:32.134Z,0.00
2019-03-22T03:38:32.103Z,0.00
2019-03-22T03:39:32.084Z,0.00
2019-03-22T03:40:32.080Z,0.00
2019-03-22T03:41:32.047Z,0.00
2019-03-22T03:42:32.036Z,0.00
2019-03-22T03:43:32.006Z,0.00
2019-03-22T03:44:31.982Z,0.00
2019-03-22T03:45:31.967Z,0.00
2019-03-22T03:46:31.949Z,0.00
2019-03-22T03:47:31.923Z,0.00
2019-03-22T03:48:31.910Z,0.00
2019-03-22T03:49:31.886Z,0.00
2019-03-22T03:50:31.873Z,0.00
2019-03-22T03:51:31.846Z,0.00
2019-03-22T03:52:31.827Z,0.00
2019-03-22T03:53:31.800Z,0.00
2019-03-22T03:54:31.791Z,0.00
2019-03-22T03:55:31.768Z,0.00
2019-03-22T03:56:31.746Z,0.00
2019-03-22T03:57:31.731Z,0.00
2019-03-22T03:58:31.706Z,0.00
2019-03-22T03:59:31.685Z,0.00
2019-03-22T04:00:31.673Z,0.00
2019-03-22T04:01:31.656Z,0.00
2019-03-22T04:02:31.649Z,0.00
2019-03-22T04:03:31.613Z,0.00
2019-03-22T04:04:31.586Z,0.00
2019-03-22T04:05:31.622Z,0.00
2019-03-22T04:06:31.605Z,0.00
2019-03-22T04:07:31.526Z,0.00
2019-03-22T04:08:31.508Z,0.00
2019-03-22T04:09:31.494Z,0.00
2019-03-22T04:10:31.465Z,0.00
2019-03-22T04:11:31.449Z,0.00
2019-03-22T04:12:31.434Z,0.00
2019-03-22T04:13:31.404Z,0.00
2019-03-22T04:14:31.384Z,0.00
2019-03-22T04:15:31.372Z,0.00
2019-03-22T04:16:31.347Z,0.00
2019-03-22T04:17:31.324Z,0.00
2019-03-22T04:18:31.309Z,0.00
2019-03-22T04:19:31.288Z,0.00
2019-03-22T04:20:31.268Z,0.00
2019-03-22T04:21:31.249Z,0.00
2019-03-22T04:22:31.225Z,0.00
2019-03-22T04:23:31.213Z,0.00
2019-03-22T04:24:31.187Z,0.00
2019-03-22T04:25:31.166Z,0.00
2019-03-22T04:26:31.153Z,0.00
2019-03-22T04:27:31.123Z,0.00
2019-03-22T04:28:31.127Z,0.00
2019-03-22T04:29:31.088Z,0.00
2019-03-22T04:30:31.076Z,0.00
2019-03-22T04:31:31.047Z,0.00
2019-03-22T04:32:31.027Z,0.00
2019-03-22T04:33:31.004Z,0.00
2019-03-22T04:34:30.986Z,0.00
2019-03-22T04:35:30.998Z,0.00
2019-03-22T04:36:30.958Z,0.00
2019-03-22T04:37:30.924Z,0.00
2019-03-22T04:38:30.909Z,0.00
2019-03-22T04:39:30.886Z,0.00
2019-03-22T04:40:30.869Z,0.00
2019-03-22T04:41:30.858Z,0.00
2019-03-22T04:42:30.827Z,0.00
2019-03-22T04:43:30.806Z,0.00
2019-03-22T04:44:30.784Z,0.00
2019-03-22T04:45:30.765Z,0.00
2019-03-22T04:46:30.777Z,0.00
2019-03-22T04:47:30.721Z,0.00
2019-03-22T04:48:30.699Z,0.00
2019-03-22T04:49:30.683Z,0.00
2019-03-22T04:50:30.669Z,0.00
2019-03-22T04:51:30.647Z,0.00
2019-03-22T04:52:30.622Z,0.00
2019-03-22T04:53:30.606Z,0.00
2019-03-22T04:54:30.584Z,0.00
2019-03-22T04:55:30.567Z,0.00
2019-03-22T04:56:30.544Z,0.00
2019-03-22T04:57:30.521Z,0.00
2019-03-22T04:58:30.503Z,0.00
2019-03-22T04:59:30.483Z,0.00
2019-03-22T05:00:30.464Z,0.00
2019-03-22T05:01:30.444Z,4.00
2019-03-22T05:02:30.424Z,0.00
2019-03-22T05:03:30.402Z,4.00
2019-03-22T05:04:30.394Z,4.00
2019-03-22T05:05:30.361Z,4.00
2019-03-22T05:06:30.339Z,4.00
2019-03-22T05:07:30.323Z,4.00
2019-03-22T05:08:30.317Z,8.00
2019-03-22T05:09:30.282Z,4.00
2019-03-22T05:10:30.261Z,8.00
2019-03-22T05:11:30.247Z,8.00
2019-03-22T05:12:30.230Z,12.00
2019-03-22T05:13:30.206Z,12.00
2019-03-22T05:14:30.180Z,16.00
2019-03-22T05:15:30.161Z,16.00
2019-03-22T05:16:30.143Z,16.00
2019-03-22T05:17:30.122Z,20.00
2019-03-22T05:18:30.101Z,24.00
2019-03-22T05:19:30.080Z,24.00
2019-03-22T05:20:30.060Z,28.00
2019-03-22T05:21:30.042Z,32.00
2019-03-22T05:22:30.023Z,36.00
2019-03-22T05:23:30.004Z,40.00
2019-03-22T05:24:29.982Z,44.00
2019-03-22T05:25:29.961Z,48.00
2019-03-22T05:26:29.940Z,56.00
2019-03-22T05:27:29.936Z,60.00
2019-03-22T05:28:29.900Z,68.00
2019-03-22T05:29:31.026Z,72.00
2019-03-22T05:30:29.860Z,84.00
2019-03-22T05:31:29.841Z,92.00
2019-03-22T05:32:29.825Z,100.00
2019-03-22T05:33:29.801Z,108.00
2019-03-22T05:34:29.778Z,116.00
2019-03-22T05:35:29.765Z,124.00
2019-03-22T05:36:29.742Z,132.00
2019-03-22T05:37:29.722Z,144.00
2019-03-22T05:38:29.699Z,156.00
2019-03-22T05:39:29.683Z,164.00
2019-03-22T05:40:29.661Z,172.00
2019-03-22T05:41:29.640Z,184.00
2019-03-22T05:42:29.621Z,192.00
2019-03-22T05:43:29.599Z,200.00
2019-03-22T05:44:29.583Z,208.00
2019-03-22T05:45:29.556Z,212.00
2019-03-22T05:46:29.545Z,220.00
2019-03-22T05:47:29.522Z,232.00
2019-03-22T05:48:29.503Z,244.00
2019-03-22T05:49:29.481Z,252.00
2019-03-22T05:50:29.462Z,260.00
2019-03-22T05:51:29.442Z,268.00
2019-03-22T05:52:29.421Z,276.00
2019-03-22T05:53:29.406Z,284.00
2019-03-22T05:54:29.391Z,288.00
2019-03-22T05:55:29.363Z,292.00
2019-03-22T05:56:29.342Z,300.00
2019-03-22T05:57:29.318Z,308.00
2019-03-22T05:58:29.303Z,328.00
2019-03-22T05:59:29.280Z,340.00
2019-03-22T06:00:29.266Z,344.00
2019-03-22T06:01:29.248Z,360.00
2019-03-22T06:02:29.226Z,368.00
2019-03-22T06:03:29.203Z,400.00
2019-03-22T06:04:29.185Z,452.00
2019-03-22T06:05:29.166Z,520.00
2019-03-22T06:06:29.162Z,576.00
2019-03-22T06:07:29.125Z,616.00
2019-03-22T06:08:29.101Z,660.00
2019-03-22T06:09:29.084Z,660.00
2019-03-22T06:10:29.068Z,680.00
2019-03-22T06:11:29.048Z,796.00
2019-03-22T06:12:29.029Z,876.00
2019-03-22T06:13:29.005Z,928.00
2019-03-22T06:14:28.989Z,964.00
2019-03-22T06:15:28.966Z,996.00
2019-03-22T06:16:28.947Z,1032.00
2019-03-22T06:17:28.933Z,1076.00
2019-03-22T06:18:28.907Z,1116.00
2019-03-22T06:19:28.914Z,1156.00
2019-03-22T06:20:28.876Z,1184.00
2019-03-22T06:21:28.846Z,1216.00
2019-03-22T06:22:28.844Z,1252.00
2019-03-22T06:23:28.812Z,1268.00
2019-03-22T06:24:28.794Z,1284.00
2019-03-22T06:25:28.779Z,1304.00
2019-03-22T06:26:28.755Z,1320.00
2019-03-22T06:27:28.732Z,1348.00
2019-03-22T06:28:28.715Z,1376.00
2019-03-22T06:29:28.699Z,1404.00
2019-03-22T06:30:28.679Z,1424.00
2019-03-22T06:31:28.662Z,1444.00
2019-03-22T06:32:28.634Z,1472.00
2019-03-22T06:33:28.627Z,1492.00
2019-03-22T06:34:28.602Z,1488.00
2019-03-22T06:35:28.587Z,1480.00
2019-03-22T06:36:28.568Z,1468.00
2019-03-22T06:37:28.557Z,1452.00
2019-03-22T06:38:28.528Z,1320.00
2019-03-22T06:39:28.509Z,1312.00
2019-03-22T06:40:28.492Z,1200.00
2019-03-22T06:41:28.469Z,1284.00
2019-03-22T06:42:28.453Z,1468.00
2019-03-22T06:43:28.435Z,1484.00
2019-03-22T06:44:28.418Z,1476.00
2019-03-22T06:45:28.392Z,1468.00
2019-03-22T06:46:28.380Z,1492.00
2019-03-22T06:47:28.366Z,1472.00
2019-03-22T06:48:28.344Z,1384.00
2019-03-22T06:49:28.321Z,1340.00
2019-03-22T06:50:28.304Z,1356.00
2019-03-22T06:51:28.293Z,1420.00
2019-03-22T06:52:28.272Z,1452.00
2019-03-22T06:53:28.250Z,1388.00
2019-03-22T06:54:31.890Z,1348.00
2019-03-22T06:55:28.214Z,1472.00
2019-03-22T06:56:28.200Z,1524.00
2019-03-22T06:57:28.177Z,1528.00
2019-03-22T06:58:28.160Z,1492.00
2019-03-22T06:59:28.147Z,1464.00
2019-03-22T07:00:28.125Z,1524.00
2019-03-22T07:01:28.106Z,1572.00
2019-03-22T07:02:28.092Z,1528.00
2019-03-22T07:03:28.071Z,1620.00
2019-03-22T07:04:28.051Z,1808.00
2019-03-22T07:05:28.031Z,1988.00
2019-03-22T07:06:28.018Z,2016.00
2019-03-22T07:07:28.001Z,2096.00
2019-03-22T07:08:27.990Z,2200.00
2019-03-22T07:09:27.964Z,2284.00
2019-03-22T07:10:27.954Z,2312.00
2019-03-22T07:11:28.211Z,2648.00
2019-03-22T07:12:27.914Z,2580.00
2019-03-22T07:13:27.896Z,2468.00
2019-03-22T07:14:27.886Z,2300.00
2019-03-22T07:15:27.859Z,2432.00
2019-03-22T07:16:27.844Z,2708.00
2019-03-22T07:17:27.828Z,3000.00
2019-03-22T07:18:27.814Z,3200.00
2019-03-22T07:19:27.792Z,3364.00
2019-03-22T07:20:27.783Z,2684.00
2019-03-22T07:21:27.770Z,1992.00
2019-03-22T07:22:27.736Z,3220.00
2019-03-22T07:23:27.721Z,3844.00
2019-03-22T07:24:27.707Z,3888.00
2019-03-22T07:25:27.691Z,3920.00
2019-03-22T07:26:30.035Z,3968.00
2019-03-22T07:27:27.654Z,3900.00
2019-03-22T07:28:27.653Z,3836.00
2019-03-22T07:29:27.620Z,3872.00
2019-03-22T07:30:27.603Z,3696.00
2019-03-22T07:31:27.589Z,3760.00
2019-03-22T07:32:27.567Z,3960.00
2019-03-22T07:33:27.549Z,4236.00
2019-03-22T07:34:27.599Z,4360.00
2019-03-22T07:35:27.521Z,4496.00
2019-03-22T07:36:27.500Z,4468.00
2019-03-22T07:37:27.488Z,4852.00
2019-03-22T07:38:27.470Z,4436.00
2019-03-22T07:39:27.466Z,4412.00
2019-03-22T07:40:27.434Z,4304.00
2019-03-22T07:41:27.418Z,4124.00
2019-03-22T07:42:27.406Z,4740.00
2019-03-22T07:43:27.404Z,4912.00
2019-03-22T07:44:27.375Z,4944.00
2019-03-22T07:45:27.362Z,4900.00
2019-03-22T07:46:27.340Z,4964.00
2019-03-22T07:47:27.327Z,4808.00
2019-03-22T07:48:27.309Z,4288.00
2019-03-22T07:49:27.297Z,4580.00
2019-03-22T07:50:27.280Z,4448.00
2019-03-22T07:51:27.267Z,4408.00
2019-03-22T07:52:27.252Z,4028.00
2019-03-22T07:53:27.236Z,4784.00
2019-03-22T07:54:27.224Z,4460.00
2019-03-22T07:55:27.204Z,4496.00
2019-03-22T07:56:27.191Z,4244.00
2019-03-22T07:57:27.174Z,4020.00
2019-03-22T07:58:27.154Z,4564.00
2019-03-22T07:59:27.141Z,5040.00
2019-03-22T08:00:30.945Z,4756.00
2019-03-22T08:01:27.115Z,4284.00
2019-03-22T08:02:27.105Z,4344.00
2019-03-22T08:03:27.086Z,4744.00
2019-03-22T08:04:27.089Z,5076.00
2019-03-22T08:05:27.059Z,5404.00
2019-03-22T08:06:27.041Z,5860.00
2019-03-22T08:07:27.028Z,4736.00
2019-03-22T08:08:27.018Z,5188.00
2019-03-22T08:09:26.997Z,4768.00
2019-03-22T08:10:26.988Z,5516.00
2019-03-22T08:11:26.971Z,4732.00
2019-03-22T08:12:26.955Z,5004.00
2019-03-22T08:13:26.951Z,6260.00
2019-03-22T08:14:26.931Z,5324.00
2019-03-22T08:15:26.939Z,5436.00
2019-03-22T08:16:26.899Z,5480.00
2019-03-22T08:17:26.895Z,5492.00
2019-03-22T08:18:26.872Z,5116.00
2019-03-22T08:19:26.862Z,5356.00
2019-03-22T08:20:26.873Z,5708.00
2019-03-22T08:21:26.830Z,6240.00
2019-03-22T08:22:26.814Z,6468.00
2019-03-22T08:23:26.816Z,6700.00
2019-03-22T08:24:26.795Z,6636.00
2019-03-22T08:25:26.782Z,6704.00
2019-03-22T08:26:26.810Z,6872.00
2019-03-22T08:27:26.747Z,6836.00
2019-03-22T08:28:26.759Z,6960.00
2019-03-22T08:29:26.736Z,6844.00
2019-03-22T08:30:26.706Z,6908.00
2019-03-22T08:31:26.747Z,6956.00
2019-03-22T08:32:26.685Z,6988.00
2019-03-22T08:33:26.677Z,6920.00
2019-03-22T08:34:26.659Z,6948.00
2019-03-22T08:35:26.666Z,6888.00
2019-03-22T08:36:26.637Z,6892.00
2019-03-22T08:37:26.663Z,6904.00
2019-03-22T08:38:26.604Z,7068.00
2019-03-22T08:39:26.617Z,7112.00
2019-03-22T08:40:26.587Z,7060.00
2019-03-22T08:41:26.567Z,7236.00
2019-03-22T08:42:26.579Z,6996.00
2019-03-22T08:43:26.566Z,6992.00
2019-03-22T08:44:26.534Z,7028.00
2019-03-22T08:45:26.515Z,7316.00
2019-03-22T08:46:26.507Z,7304.00
2019-03-22T08:47:33.667Z,7048.00
2019-03-22T08:48:26.482Z,7144.00
2019-03-22T08:49:26.633Z,7316.00
2019-03-22T08:50:26.461Z,7344.00
2019-03-22T08:51:26.449Z,6996.00
2019-03-22T08:52:26.445Z,7228.00
2019-03-22T08:53:26.423Z,7216.00
2019-03-22T08:54:26.415Z,7332.00
2019-03-22T08:55:26.398Z,7472.00
2019-03-22T08:56:26.390Z,7564.00
2019-03-22T08:57:26.380Z,7608.00
2019-03-22T08:58:26.378Z,7680.00
2019-03-22T08:59:26.353Z,7604.00
2019-03-22T09:00:38.563Z,7672.00
2019-03-22T09:01:26.359Z,7620.00
2019-03-22T09:02:26.326Z,7780.00
2019-03-22T09:03:26.312Z,7828.00
2019-03-22T09:04:26.299Z,7820.00
2019-03-22T09:05:26.292Z,7684.00
2019-03-22T09:06:26.279Z,7708.00
2019-03-22T09:07:26.287Z,7700.00
2019-03-22T09:08:26.257Z,7464.00
2019-03-22T09:09:26.257Z,7448.00
2019-03-22T09:10:26.241Z,7420.00
2019-03-22T09:11:26.246Z,7724.00
2019-03-22T09:12:27.013Z,7940.00
2019-03-22T09:13:26.218Z,8004.00
2019-03-22T09:14:26.196Z,7928.00
2019-03-22T09:15:26.245Z,7812.00
2019-03-22T09:16:26.177Z,7764.00
2019-03-22T09:17:26.167Z,7596.00
2019-03-22T09:18:26.162Z,7476.00
2019-03-22T09:19:26.259Z,8216.00
2019-03-22T09:20:26.174Z,8240.00
2019-03-22T09:21:26.137Z,7612.00
2019-03-22T09:22:26.129Z,7936.00
2019-03-22T09:23:26.121Z,8244.00
2019-03-22T09:24:38.274Z,8208.00
2019-03-22T09:25:26.097Z,8196.00
2019-03-22T09:26:26.116Z,8224.00
2019-03-22T09:27:26.081Z,8084.00
2019-03-22T09:28:26.072Z,8076.00
2019-03-22T09:29:26.136Z,8028.00
2019-03-22T09:30:26.053Z,7684.00
2019-03-22T09:31:26.047Z,8360.00
2019-03-22T09:32:26.069Z,7500.00
2019-03-22T09:33:26.028Z,7744.00
2019-03-22T09:34:33.738Z,8296.00
2019-03-22T09:35:26.034Z,8416.00
2019-03-22T09:36:26.005Z,8500.00
2019-03-22T09:37:25.997Z,8540.00
2019-03-22T09:38:28.518Z,8180.00
2019-03-22T09:39:25.986Z,8216.00
2019-03-22T09:40:25.987Z,8408.00
2019-03-22T09:41:25.971Z,8312.00
2019-03-22T09:42:25.971Z,8256.00
2019-03-22T09:43:25.965Z,8508.00
2019-03-22T09:44:28.229Z,7460.00
2019-03-22T09:45:25.939Z,7708.00
2019-03-22T09:46:25.974Z,7988.00
2019-03-22T09:47:25.928Z,7792.00
2019-03-22T09:48:26.000Z,8452.00
2019-03-22T09:49:25.927Z,8424.00
2019-03-22T09:50:25.909Z,8500.00
2019-03-22T09:51:25.898Z,7996.00
2019-03-22T09:52:25.921Z,7856.00
2019-03-22T09:53:25.892Z,7412.00
2019-03-22T09:54:25.881Z,7560.00
2019-03-22T09:55:25.933Z,7496.00
2019-03-22T09:56:25.865Z,7356.00
2019-03-22T09:57:25.872Z,7172.00
2019-03-22T09:58:25.855Z,7028.00
2019-03-22T09:59:25.846Z,8072.00
2019-03-22T10:00:25.841Z,7992.00
2019-03-22T10:01:25.899Z,7548.00
2019-03-22T10:02:25.835Z,7828.00
2019-03-22T10:03:25.844Z,8008.00
2019-03-22T10:04:25.810Z,8404.00
2019-03-22T10:05:25.858Z,7924.00
2019-03-22T10:06:25.843Z,7248.00
2019-03-22T10:07:25.815Z,6676.00
2019-03-22T10:08:25.790Z,6740.00
2019-03-22T10:09:25.882Z,7212.00
2019-03-22T10:10:25.851Z,6824.00
2019-03-22T10:11:25.763Z,7028.00
2019-03-22T10:12:25.806Z,7164.00
2019-03-22T10:13:25.748Z,6796.00
2019-03-22T10:14:25.760Z,6780.00
2019-03-22T10:15:25.737Z,6468.00
2019-03-22T10:16:25.725Z,6144.00
2019-03-22T10:17:25.721Z,7268.00
2019-03-22T10:18:25.722Z,7624.00
2019-03-22T10:19:25.739Z,7884.00
2019-03-22T10:20:25.717Z,7388.00
2019-03-22T10:21:25.690Z,6244.00
2019-03-22T10:22:25.709Z,7100.00
2019-03-22T10:23:25.706Z,7120.00
2019-03-22T10:24:25.677Z,9120.00
2019-03-22T10:25:25.698Z,8172.00
2019-03-22T10:26:25.663Z,7880.00
2019-03-22T10:27:25.654Z,6672.00
2019-03-22T10:28:25.663Z,6652.00
2019-03-22T10:29:25.638Z,6392.00
2019-03-22T10:30:25.643Z,6896.00
2019-03-22T10:31:36.546Z,8120.00
2019-03-22T10:32:25.622Z,8212.00
2019-03-22T10:33:25.632Z,8964.00
2019-03-22T10:34:25.673Z,9528.00
2019-03-22T10:35:26.628Z,9000.00
2019-03-22T10:36:25.598Z,8272.00
2019-03-22T10:37:25.593Z,8108.00
2019-03-22T10:39:25.578Z,8396.00
2019-03-22T10:40:25.575Z,8324.00
2019-03-22T10:41:25.595Z,8376.00
2019-03-22T10:42:25.564Z,7760.00
2019-03-22T10:43:25.554Z,7532.00
2019-03-22T10:44:25.617Z,8164.00
2019-03-22T10:45:25.605Z,8224.00
2019-03-22T10:46:25.574Z,8188.00
2019-03-22T10:47:25.539Z,6616.00
2019-03-22T10:48:25.549Z,7404.00
2019-03-22T10:49:25.561Z,6548.00
2019-03-22T10:50:25.547Z,7460.00
2019-03-22T10:51:25.581Z,7648.00
2019-03-22T10:52:25.516Z,6920.00
2019-03-22T10:53:25.496Z,6944.00
2019-03-22T10:54:25.548Z,6876.00
2019-03-22T10:55:30.100Z,7800.00
2019-03-22T10:56:25.475Z,8288.00
2019-03-22T10:57:25.472Z,8164.00
2019-03-22T10:58:25.481Z,7432.00
2019-03-22T10:59:25.482Z,8548.00
2019-03-22T11:00:25.458Z,8308.00
2019-03-22T11:01:25.449Z,8844.00
2019-03-22T11:02:25.444Z,7644.00
2019-03-22T11:03:25.468Z,8172.00
2019-03-22T11:04:25.429Z,7956.00
2019-03-22T11:05:25.434Z,7548.00
2019-03-22T11:06:26.349Z,7624.00
2019-03-22T11:07:25.425Z,7676.00
2019-03-22T11:08:25.414Z,8116.00
2019-03-22T11:09:25.408Z,9564.00
2019-03-22T11:10:25.403Z,8524.00
2019-03-22T11:11:25.398Z,7488.00
2019-03-22T11:12:25.395Z,6848.00
2019-03-22T11:13:25.388Z,7576.00
2019-03-22T11:14:25.390Z,7704.00
2019-03-22T11:15:25.397Z,8092.00
2019-03-22T11:16:25.371Z,7484.00
2019-03-22T11:17:25.366Z,6964.00
2019-03-22T11:18:25.360Z,7420.00
2019-03-22T11:19:25.357Z,7640.00
2019-03-22T11:20:25.354Z,8144.00
2019-03-22T11:21:25.350Z,7880.00
2019-03-22T11:22:25.365Z,8584.00
2019-03-22T11:23:25.336Z,8160.00
2019-03-22T11:24:25.331Z,8024.00
2019-03-22T11:25:25.322Z,8836.00
2019-03-22T11:26:25.316Z,8460.00
2019-03-22T11:27:25.315Z,8616.00
2019-03-22T11:28:25.314Z,8316.00
2019-03-22T11:29:25.302Z,8784.00
2019-03-22T11:30:25.297Z,8284.00
2019-03-22T11:31:28.521Z,7424.00
2019-03-22T11:32:25.288Z,9116.00
2019-03-22T11:33:25.287Z,8348.00
2019-03-22T11:34:25.278Z,7480.00
2019-03-22T11:35:25.274Z,7932.00
2019-03-22T11:36:25.271Z,7880.00
2019-03-22T11:37:25.270Z,8524.00
2019-03-22T11:38:25.258Z,9360.00
2019-03-22T11:39:25.254Z,9636.00
2019-03-22T11:40:25.251Z,9472.00
2019-03-22T11:41:25.254Z,9152.00
2019-03-22T11:42:25.243Z,8664.00
2019-03-22T11:43:25.661Z,9560.00
2019-03-22T11:44:25.235Z,8496.00
2019-03-22T11:45:25.307Z,9268.00
2019-03-22T11:46:25.223Z,8984.00
2019-03-22T11:47:25.218Z,9328.00
2019-03-22T11:48:25.209Z,9812.00
2019-03-22T11:49:25.212Z,10440.00
2019-03-22T11:50:25.220Z,10132.00
2019-03-22T11:51:25.202Z,9916.00
2019-03-22T11:52:25.195Z,8944.00
2019-03-22T11:53:25.194Z,8708.00
2019-03-22T11:54:25.192Z,8808.00
2019-03-22T11:55:25.187Z,8420.00
2019-03-22T11:56:25.184Z,8324.00
2019-03-22T11:57:25.178Z,8724.00
2019-03-22T11:58:25.176Z,8600.00
2019-03-22T11:59:25.174Z,8216.00
2019-03-22T12:00:25.172Z,7896.00
2019-03-22T12:01:25.166Z,7580.00
2019-03-22T12:02:25.161Z,6724.00
2019-03-22T12:03:25.162Z,6096.00
2019-03-22T12:04:25.156Z,6296.00
2019-03-22T12:05:25.156Z,6520.00
2019-03-22T12:06:27.245Z,5868.00
2019-03-22T12:07:25.156Z,5848.00
2019-03-22T12:08:25.602Z,5556.00
2019-03-22T12:09:25.141Z,5616.00
2019-03-22T12:10:25.137Z,5740.00
2019-03-22T12:11:25.132Z,5576.00
2019-03-22T12:12:25.131Z,5504.00
2019-03-22T12:13:25.126Z,5704.00
2019-03-22T12:14:25.122Z,5888.00
2019-03-22T12:15:25.118Z,6304.00
2019-03-22T12:16:25.115Z,6908.00
2019-03-22T12:17:25.108Z,7264.00
2019-03-22T12:18:25.104Z,7912.00
2019-03-22T12:19:25.101Z,8096.00
2019-03-22T12:20:25.102Z,7916.00
2019-03-22T12:21:25.092Z,7692.00
2019-03-22T12:22:25.089Z,7572.00
2019-03-22T12:23:25.084Z,7044.00
2019-03-22T12:24:25.079Z,6628.00
2019-03-22T12:25:25.078Z,6388.00
2019-03-22T12:26:25.074Z,6288.00
2019-03-22T12:27:25.065Z,5824.00
2019-03-22T12:28:25.065Z,6280.00
2019-03-22T12:29:25.065Z,7112.00
2019-03-22T12:30:25.053Z,6896.00
2019-03-22T12:31:25.047Z,7156.00
2019-03-22T12:32:31.999Z,7064.00
2019-03-22T12:33:25.047Z,7216.00
2019-03-22T12:34:25.033Z,7244.00
2019-03-22T12:35:25.031Z,7584.00
2019-03-22T12:36:25.024Z,8024.00
2019-03-22T12:37:25.022Z,8476.00